sensor_id;sensor_type;location;lat;lon;timestamp;P1;durP1;ratioP1;P2;durP2;ratioP2
19883;SDS011;10104;50.732;10.174;2022-12-29T00:00:40;3.37;;;1.77;;
19883;SDS011;10104;50.732;10.174;2022-12-29T00:03:02;2.83;;;1.83;;
19883;SDS011;10104;50.732;10.174;2022-12-29T00:05:23;2.53;;;1.70;;
19883;SDS011;10104;50.732;10.174;2022-12-29T00:07:45;2.90;;;1.90;;
19883;SDS011;10104;50.732;10.174;2022-12-29T00:10:07;3.50;;;2.03;;
19883;SDS011;10104;50.732;10.174;2022-12-29T00:12:28;5.93;;;2.07;;
19883;SDS011;10104;50.732;10.174;2022-12-29T00:15:10;2.57;;;1.70;;
19883;SDS011;10104;50.732;10.174;2022-12-29T00:17:50;2.57;;;1.70;;
19883;SDS011;10104;50.732;10.174;2022-12-29T00:20:11;3.30;;;1.83;;
19883;SDS011;10104;50.732;10.174;2022-12-29T00:22:53;3.77;;;1.93;;
19883;SDS011;10104;50.732;10.174;2022-12-29T00:25:35;3.80;;;2.00;;
19883;SDS011;10104;50.732;10.174;2022-12-29T00:28:15;2.47;;;1.80;;
19883;SDS011;10104;50.732;10.174;2022-12-29T00:30:59;3.27;;;1.90;;
19883;SDS011;10104;50.732;10.174;2022-12-29T00:33:40;2.23;;;1.73;;
19883;SDS011;10104;50.732;10.174;2022-12-29T00:36:34;2.47;;;1.77;;
19883;SDS011;10104;50.732;10.174;2022-12-29T00:39:01;2.93;;;2.07;;
19883;SDS011;10104;50.732;10.174;2022-12-29T00:41:46;2.63;;;1.37;;
19883;SDS011;10104;50.732;10.174;2022-12-29T00:44:28;2.07;;;1.60;;
19883;SDS011;10104;50.732;10.174;2022-12-29T00:46:49;2.70;;;1.70;;
19883;SDS011;10104;50.732;10.174;2022-12-29T00:49:12;3.67;;;1.60;;
19883;SDS011;10104;50.732;10.174;2022-12-29T00:51:52;2.50;;;1.77;;
19883;SDS011;10104;50.732;10.174;2022-12-29T00:54:15;2.30;;;1.60;;
19883;SDS011;10104;50.732;10.174;2022-12-29T00:56:38;3.47;;;1.87;;
19883;SDS011;10104;50.732;10.174;2022-12-29T00:59:03;3.73;;;1.90;;
19883;SDS011;10104;50.732;10.174;2022-12-29T01:01:27;2.13;;;1.63;;
19883;SDS011;10104;50.732;10.174;2022-12-29T01:03:48;2.87;;;1.67;;
19883;SDS011;10104;50.732;10.174;2022-12-29T01:06:10;2.50;;;1.50;;
19883;SDS011;10104;50.732;10.174;2022-12-29T01:08:34;2.77;;;1.93;;
19883;SDS011;10104;50.732;10.174;2022-12-29T01:13:25;2.70;;;1.60;;
19883;SDS011;10104;50.732;10.174;2022-12-29T01:15:53;3.33;;;1.60;;
19883;SDS011;10104;50.732;10.174;2022-12-29T01:18:15;4.30;;;1.90;;
19883;SDS011;10104;50.732;10.174;2022-12-29T01:20:38;1.97;;;1.57;;
19883;SDS011;10104;50.732;10.174;2022-12-29T01:22:59;3.97;;;1.43;;
19883;SDS011;10104;50.732;10.174;2022-12-29T01:25:21;2.20;;;1.70;;
19883;SDS011;10104;50.732;10.174;2022-12-29T01:27:42;4.27;;;1.67;;
19883;SDS011;10104;50.732;10.174;2022-12-29T01:30:04;2.37;;;1.60;;
19883;SDS011;10104;50.732;10.174;2022-12-29T01:32:26;3.30;;;1.73;;
19883;SDS011;10104;50.732;10.174;2022-12-29T01:34:47;2.57;;;1.63;;
19883;SDS011;10104;50.732;10.174;2022-12-29T01:37:09;1.77;;;1.50;;
19883;SDS011;10104;50.732;10.174;2022-12-29T01:39:30;3.00;;;1.90;;
19883;SDS011;10104;50.732;10.174;2022-12-29T01:41:52;3.90;;;1.70;;
19883;SDS011;10104;50.732;10.174;2022-12-29T01:45:15;2.43;;;1.77;;
19883;SDS011;10104;50.732;10.174;2022-12-29T01:47:38;2.37;;;1.57;;
19883;SDS011;10104;50.732;10.174;2022-12-29T01:52:50;2.30;;;1.77;;
19883;SDS011;10104;50.732;10.174;2022-12-29T01:55:17;2.47;;;1.50;;
19883;SDS011;10104;50.732;10.174;2022-12-29T01:57:40;1.40;;;1.27;;
19883;SDS011;10104;50.732;10.174;2022-12-29T02:00:07;2.10;;;1.40;;
19883;SDS011;10104;50.732;10.174;2022-12-29T02:02:31;2.50;;;1.47;;
19883;SDS011;10104;50.732;10.174;2022-12-29T02:04:53;2.30;;;1.50;;
19883;SDS011;10104;50.732;10.174;2022-12-29T02:07:24;2.70;;;1.67;;
19883;SDS011;10104;50.732;10.174;2022-12-29T02:09:49;2.43;;;1.50;;
19883;SDS011;10104;50.732;10.174;2022-12-29T02:12:12;2.43;;;1.60;;
19883;SDS011;10104;50.732;10.174;2022-12-29T02:14:33;2.10;;;1.70;;
19883;SDS011;10104;50.732;10.174;2022-12-29T02:17:05;5.03;;;1.63;;
19883;SDS011;10104;50.732;10.174;2022-12-29T02:19:46;3.87;;;1.87;;
19883;SDS011;10104;50.732;10.174;2022-12-29T02:22:22;2.27;;;1.47;;
19883;SDS011;10104;50.732;10.174;2022-12-29T02:27:44;3.93;;;1.70;;
19883;SDS011;10104;50.732;10.174;2022-12-29T02:30:25;2.93;;;1.43;;
19883;SDS011;10104;50.732;10.174;2022-12-29T02:33:20;3.03;;;1.33;;
19883;SDS011;10104;50.732;10.174;2022-12-29T02:38:45;1.53;;;1.10;;
19883;SDS011;10104;50.732;10.174;2022-12-29T02:41:16;2.50;;;1.40;;
19883;SDS011;10104;50.732;10.174;2022-12-29T02:46:18;3.23;;;1.40;;
19883;SDS011;10104;50.732;10.174;2022-12-29T02:48:51;2.70;;;1.37;;
19883;SDS011;10104;50.732;10.174;2022-12-29T02:51:21;1.60;;;1.10;;
19883;SDS011;10104;50.732;10.174;2022-12-29T02:53:47;3.77;;;1.30;;
19883;SDS011;10104;50.732;10.174;2022-12-29T02:56:28;1.67;;;1.30;;
19883;SDS011;10104;50.732;10.174;2022-12-29T02:58:50;2.47;;;1.23;;
19883;SDS011;10104;50.732;10.174;2022-12-29T03:01:21;2.53;;;1.27;;
19883;SDS011;10104;50.732;10.174;2022-12-29T03:06:34;2.30;;;1.40;;
19883;SDS011;10104;50.732;10.174;2022-12-29T03:11:41;2.23;;;1.40;;
19883;SDS011;10104;50.732;10.174;2022-12-29T03:14:32;1.40;;;1.20;;
19883;SDS011;10104;50.732;10.174;2022-12-29T03:20:25;3.57;;;1.33;;
19883;SDS011;10104;50.732;10.174;2022-12-29T03:22:53;1.80;;;1.20;;
19883;SDS011;10104;50.732;10.174;2022-12-29T03:25:23;2.77;;;1.27;;
19883;SDS011;10104;50.732;10.174;2022-12-29T03:27:49;2.17;;;1.13;;
19883;SDS011;10104;50.732;10.174;2022-12-29T03:30:14;1.90;;;1.23;;
19883;SDS011;10104;50.732;10.174;2022-12-29T03:32:44;1.40;;;1.10;;
19883;SDS011;10104;50.732;10.174;2022-12-29T03:35:09;1.90;;;1.33;;
19883;SDS011;10104;50.732;10.174;2022-12-29T03:37:35;1.30;;;1.10;;
19883;SDS011;10104;50.732;10.174;2022-12-29T03:40:00;1.73;;;1.03;;
19883;SDS011;10104;50.732;10.174;2022-12-29T03:42:23;1.97;;;1.30;;
19883;SDS011;10104;50.732;10.174;2022-12-29T03:44:47;3.83;;;1.20;;
19883;SDS011;10104;50.732;10.174;2022-12-29T03:47:12;3.23;;;1.10;;
19883;SDS011;10104;50.732;10.174;2022-12-29T03:49:35;2.90;;;1.30;;
19883;SDS011;10104;50.732;10.174;2022-12-29T03:51:57;1.70;;;0.93;;
19883;SDS011;10104;50.732;10.174;2022-12-29T03:54:18;2.43;;;1.03;;
19883;SDS011;10104;50.732;10.174;2022-12-29T03:56:40;1.60;;;1.17;;
19883;SDS011;10104;50.732;10.174;2022-12-29T03:59:01;2.53;;;1.10;;
19883;SDS011;10104;50.732;10.174;2022-12-29T04:01:23;1.90;;;1.20;;
19883;SDS011;10104;50.732;10.174;2022-12-29T04:03:45;1.30;;;1.00;;
19883;SDS011;10104;50.732;10.174;2022-12-29T04:06:06;2.47;;;1.17;;
19883;SDS011;10104;50.732;10.174;2022-12-29T04:08:28;1.33;;;1.10;;
19883;SDS011;10104;50.732;10.174;2022-12-29T04:10:50;2.60;;;1.03;;
19883;SDS011;10104;50.732;10.174;2022-12-29T04:13:12;1.57;;;0.93;;
19883;SDS011;10104;50.732;10.174;2022-12-29T04:15:34;1.40;;;1.20;;
19883;SDS011;10104;50.732;10.174;2022-12-29T04:17:55;2.57;;;1.00;;
19883;SDS011;10104;50.732;10.174;2022-12-29T04:20:17;2.20;;;1.20;;
19883;SDS011;10104;50.732;10.174;2022-12-29T04:23:00;1.50;;;1.10;;
19883;SDS011;10104;50.732;10.174;2022-12-29T04:25:25;2.17;;;1.03;;
19883;SDS011;10104;50.732;10.174;2022-12-29T04:27:47;2.50;;;0.97;;
19883;SDS011;10104;50.732;10.174;2022-12-29T04:30:09;1.13;;;1.00;;
19883;SDS011;10104;50.732;10.174;2022-12-29T04:32:31;1.47;;;1.00;;
19883;SDS011;10104;50.732;10.174;2022-12-29T04:34:52;1.30;;;1.07;;
19883;SDS011;10104;50.732;10.174;2022-12-29T04:37:14;1.20;;;0.90;;
19883;SDS011;10104;50.732;10.174;2022-12-29T04:39:35;1.07;;;0.97;;
19883;SDS011;10104;50.732;10.174;2022-12-29T04:41:56;0.97;;;0.73;;
19883;SDS011;10104;50.732;10.174;2022-12-29T04:44:18;1.43;;;0.97;;
19883;SDS011;10104;50.732;10.174;2022-12-29T04:46:39;2.40;;;1.10;;
19883;SDS011;10104;50.732;10.174;2022-12-29T04:49:01;3.53;;;1.10;;
19883;SDS011;10104;50.732;10.174;2022-12-29T04:51:29;3.27;;;1.20;;
19883;SDS011;10104;50.732;10.174;2022-12-29T04:53:50;1.20;;;1.10;;
19883;SDS011;10104;50.732;10.174;2022-12-29T04:56:11;1.80;;;1.03;;
19883;SDS011;10104;50.732;10.174;2022-12-29T04:58:33;1.37;;;1.07;;
19883;SDS011;10104;50.732;10.174;2022-12-29T05:00:54;1.63;;;1.27;;
19883;SDS011;10104;50.732;10.174;2022-12-29T05:03:16;1.77;;;1.07;;
19883;SDS011;10104;50.732;10.174;2022-12-29T05:05:38;2.53;;;1.30;;
19883;SDS011;10104;50.732;10.174;2022-12-29T05:08:00;1.70;;;1.10;;
19883;SDS011;10104;50.732;10.174;2022-12-29T05:10:21;2.87;;;1.10;;
19883;SDS011;10104;50.732;10.174;2022-12-29T05:12:43;2.20;;;1.30;;
19883;SDS011;10104;50.732;10.174;2022-12-29T05:15:05;1.60;;;1.10;;
19883;SDS011;10104;50.732;10.174;2022-12-29T05:17:28;2.53;;;0.90;;
19883;SDS011;10104;50.732;10.174;2022-12-29T05:19:50;2.20;;;1.33;;
19883;SDS011;10104;50.732;10.174;2022-12-29T05:22:11;1.20;;;1.07;;
19883;SDS011;10104;50.732;10.174;2022-12-29T05:24:34;1.47;;;0.97;;
19883;SDS011;10104;50.732;10.174;2022-12-29T05:26:55;2.57;;;1.20;;
19883;SDS011;10104;50.732;10.174;2022-12-29T05:29:17;1.83;;;1.10;;
19883;SDS011;10104;50.732;10.174;2022-12-29T05:31:39;1.93;;;1.10;;
19883;SDS011;10104;50.732;10.174;2022-12-29T05:34:00;4.40;;;1.10;;
19883;SDS011;10104;50.732;10.174;2022-12-29T05:36:22;1.60;;;1.10;;
19883;SDS011;10104;50.732;10.174;2022-12-29T05:38:44;2.30;;;1.17;;
19883;SDS011;10104;50.732;10.174;2022-12-29T05:41:05;2.27;;;1.10;;
19883;SDS011;10104;50.732;10.174;2022-12-29T05:43:27;1.33;;;0.97;;
19883;SDS011;10104;50.732;10.174;2022-12-29T05:45:49;2.83;;;1.17;;
19883;SDS011;10104;50.732;10.174;2022-12-29T05:48:11;1.77;;;1.27;;
19883;SDS011;10104;50.732;10.174;2022-12-29T05:50:32;3.53;;;1.50;;
19883;SDS011;10104;50.732;10.174;2022-12-29T05:52:53;2.60;;;1.20;;
19883;SDS011;10104;50.732;10.174;2022-12-29T05:55:15;2.17;;;1.20;;
19883;SDS011;10104;50.732;10.174;2022-12-29T05:57:38;1.83;;;1.13;;
19883;SDS011;10104;50.732;10.174;2022-12-29T06:00:00;2.83;;;1.20;;
19883;SDS011;10104;50.732;10.174;2022-12-29T06:02:21;1.93;;;1.30;;
19883;SDS011;10104;50.732;10.174;2022-12-29T06:04:43;2.03;;;1.30;;
19883;SDS011;10104;50.732;10.174;2022-12-29T06:07:04;2.60;;;1.23;;
19883;SDS011;10104;50.732;10.174;2022-12-29T06:09:26;2.33;;;1.30;;
19883;SDS011;10104;50.732;10.174;2022-12-29T06:11:48;2.30;;;1.20;;
19883;SDS011;10104;50.732;10.174;2022-12-29T06:14:09;2.67;;;1.23;;
19883;SDS011;10104;50.732;10.174;2022-12-29T06:16:31;1.60;;;1.20;;
19883;SDS011;10104;50.732;10.174;2022-12-29T06:18:52;2.53;;;1.23;;
19883;SDS011;10104;50.732;10.174;2022-12-29T06:21:14;2.70;;;1.03;;
19883;SDS011;10104;50.732;10.174;2022-12-29T06:23:35;3.80;;;1.10;;
19883;SDS011;10104;50.732;10.174;2022-12-29T06:25:57;2.53;;;1.20;;
19883;SDS011;10104;50.732;10.174;2022-12-29T06:28:18;2.03;;;1.60;;
19883;SDS011;10104;50.732;10.174;2022-12-29T06:30:40;1.80;;;1.20;;
19883;SDS011;10104;50.732;10.174;2022-12-29T06:33:05;3.57;;;1.37;;
19883;SDS011;10104;50.732;10.174;2022-12-29T06:35:26;3.57;;;1.20;;
19883;SDS011;10104;50.732;10.174;2022-12-29T06:37:48;3.07;;;1.27;;
19883;SDS011;10104;50.732;10.174;2022-12-29T06:40:10;3.00;;;1.20;;
19883;SDS011;10104;50.732;10.174;2022-12-29T06:42:32;1.87;;;1.20;;
19883;SDS011;10104;50.732;10.174;2022-12-29T06:44:54;1.83;;;1.23;;
19883;SDS011;10104;50.732;10.174;2022-12-29T06:47:18;4.00;;;1.83;;
19883;SDS011;10104;50.732;10.174;2022-12-29T06:49:40;2.30;;;1.20;;
19883;SDS011;10104;50.732;10.174;2022-12-29T06:52:01;2.03;;;1.13;;
19883;SDS011;10104;50.732;10.174;2022-12-29T06:54:32;2.10;;;1.23;;
19883;SDS011;10104;50.732;10.174;2022-12-29T06:56:54;1.80;;;1.00;;
19883;SDS011;10104;50.732;10.174;2022-12-29T06:59:15;2.07;;;0.93;;
19883;SDS011;10104;50.732;10.174;2022-12-29T07:01:37;2.03;;;1.00;;
19883;SDS011;10104;50.732;10.174;2022-12-29T07:03:59;1.30;;;1.20;;
19883;SDS011;10104;50.732;10.174;2022-12-29T07:06:20;2.00;;;1.10;;
19883;SDS011;10104;50.732;10.174;2022-12-29T07:08:42;1.47;;;1.00;;
19883;SDS011;10104;50.732;10.174;2022-12-29T07:11:04;1.40;;;1.00;;
19883;SDS011;10104;50.732;10.174;2022-12-29T07:13:26;1.10;;;0.90;;
19883;SDS011;10104;50.732;10.174;2022-12-29T07:15:48;1.30;;;1.00;;
19883;SDS011;10104;50.732;10.174;2022-12-29T07:18:09;2.53;;;1.10;;
19883;SDS011;10104;50.732;10.174;2022-12-29T07:20:31;2.10;;;1.20;;
19883;SDS011;10104;50.732;10.174;2022-12-29T07:22:53;2.10;;;1.27;;
19883;SDS011;10104;50.732;10.174;2022-12-29T07:25:14;2.37;;;1.20;;
19883;SDS011;10104;50.732;10.174;2022-12-29T07:27:37;2.60;;;1.20;;
19883;SDS011;10104;50.732;10.174;2022-12-29T07:29:59;2.83;;;1.10;;
19883;SDS011;10104;50.732;10.174;2022-12-29T07:32:20;1.50;;;1.20;;
19883;SDS011;10104;50.732;10.174;2022-12-29T07:34:42;1.87;;;1.20;;
19883;SDS011;10104;50.732;10.174;2022-12-29T07:37:06;1.27;;;1.00;;
19883;SDS011;10104;50.732;10.174;2022-12-29T07:39:27;5.77;;;1.40;;
19883;SDS011;10104;50.732;10.174;2022-12-29T07:41:49;1.73;;;1.10;;
19883;SDS011;10104;50.732;10.174;2022-12-29T07:44:10;3.63;;;1.20;;
19883;SDS011;10104;50.732;10.174;2022-12-29T07:46:32;1.60;;;1.07;;
19883;SDS011;10104;50.732;10.174;2022-12-29T07:49:14;2.73;;;1.17;;
19883;SDS011;10104;50.732;10.174;2022-12-29T07:51:35;3.27;;;1.00;;
19883;SDS011;10104;50.732;10.174;2022-12-29T07:53:56;1.60;;;1.00;;
19883;SDS011;10104;50.732;10.174;2022-12-29T07:56:20;1.60;;;1.03;;
19883;SDS011;10104;50.732;10.174;2022-12-29T07:58:41;1.40;;;0.97;;
19883;SDS011;10104;50.732;10.174;2022-12-29T08:01:03;2.07;;;0.90;;
19883;SDS011;10104;50.732;10.174;2022-12-29T08:03:26;3.60;;;1.17;;
19883;SDS011;10104;50.732;10.174;2022-12-29T08:05:48;2.03;;;0.90;;
19883;SDS011;10104;50.732;10.174;2022-12-29T08:08:10;2.30;;;1.17;;
19883;SDS011;10104;50.732;10.174;2022-12-29T08:10:31;2.17;;;1.43;;
19883;SDS011;10104;50.732;10.174;2022-12-29T08:12:53;2.80;;;1.00;;
19883;SDS011;10104;50.732;10.174;2022-12-29T08:15:14;3.53;;;1.00;;
19883;SDS011;10104;50.732;10.174;2022-12-29T08:17:36;2.47;;;1.07;;
19883;SDS011;10104;50.732;10.174;2022-12-29T08:19:58;2.40;;;1.30;;
19883;SDS011;10104;50.732;10.174;2022-12-29T08:22:20;0.83;;;0.77;;
19883;SDS011;10104;50.732;10.174;2022-12-29T08:24:41;2.13;;;1.00;;
19883;SDS011;10104;50.732;10.174;2022-12-29T08:27:03;1.60;;;1.00;;
19883;SDS011;10104;50.732;10.174;2022-12-29T08:29:33;1.50;;;1.17;;
19883;SDS011;10104;50.732;10.174;2022-12-29T08:31:54;5.47;;;1.40;;
19883;SDS011;10104;50.732;10.174;2022-12-29T08:34:16;1.00;;;0.90;;
19883;SDS011;10104;50.732;10.174;2022-12-29T08:36:37;1.80;;;1.07;;
19883;SDS011;10104;50.732;10.174;2022-12-29T08:38:59;2.23;;;1.27;;
19883;SDS011;10104;50.732;10.174;2022-12-29T08:41:20;1.77;;;1.30;;
19883;SDS011;10104;50.732;10.174;2022-12-29T08:43:46;1.97;;;1.30;;
19883;SDS011;10104;50.732;10.174;2022-12-29T08:46:09;2.53;;;1.20;;
19883;SDS011;10104;50.732;10.174;2022-12-29T08:48:30;3.37;;;1.50;;
19883;SDS011;10104;50.732;10.174;2022-12-29T08:50:52;3.03;;;1.30;;
19883;SDS011;10104;50.732;10.174;2022-12-29T08:53:14;3.63;;;1.57;;
19883;SDS011;10104;50.732;10.174;2022-12-29T08:55:35;4.87;;;1.60;;
19883;SDS011;10104;50.732;10.174;2022-12-29T08:57:57;3.33;;;1.27;;
19883;SDS011;10104;50.732;10.174;2022-12-29T09:00:18;2.10;;;1.30;;
19883;SDS011;10104;50.732;10.174;2022-12-29T09:02:41;3.87;;;1.40;;
19883;SDS011;10104;50.732;10.174;2022-12-29T09:05:03;2.33;;;1.30;;
19883;SDS011;10104;50.732;10.174;2022-12-29T09:07:25;4.33;;;1.20;;
19883;SDS011;10104;50.732;10.174;2022-12-29T09:09:47;2.73;;;1.10;;
19883;SDS011;10104;50.732;10.174;2022-12-29T09:12:08;4.23;;;1.17;;
19883;SDS011;10104;50.732;10.174;2022-12-29T09:14:30;1.57;;;1.30;;
19883;SDS011;10104;50.732;10.174;2022-12-29T09:16:51;2.27;;;1.47;;
19883;SDS011;10104;50.732;10.174;2022-12-29T09:19:32;2.63;;;1.50;;
19883;SDS011;10104;50.732;10.174;2022-12-29T09:21:53;2.23;;;1.30;;
19883;SDS011;10104;50.732;10.174;2022-12-29T09:24:15;3.10;;;1.63;;
19883;SDS011;10104;50.732;10.174;2022-12-29T09:26:36;4.90;;;1.27;;
19883;SDS011;10104;50.732;10.174;2022-12-29T09:29:06;2.93;;;1.40;;
19883;SDS011;10104;50.732;10.174;2022-12-29T09:31:28;1.87;;;1.33;;
19883;SDS011;10104;50.732;10.174;2022-12-29T09:33:49;2.50;;;1.43;;
19883;SDS011;10104;50.732;10.174;2022-12-29T09:36:11;2.87;;;1.40;;
19883;SDS011;10104;50.732;10.174;2022-12-29T09:38:32;3.30;;;1.60;;
19883;SDS011;10104;50.732;10.174;2022-12-29T09:40:55;4.33;;;1.30;;
19883;SDS011;10104;50.732;10.174;2022-12-29T09:48:23;1.50;;;1.40;;
19883;SDS011;10104;50.732;10.174;2022-12-29T09:50:51;1.60;;;1.10;;
19883;SDS011;10104;50.732;10.174;2022-12-29T09:53:22;1.23;;;1.10;;
19883;SDS011;10104;50.732;10.174;2022-12-29T09:55:50;1.47;;;1.30;;
19883;SDS011;10104;50.732;10.174;2022-12-29T09:58:28;3.43;;;1.80;;
19883;SDS011;10104;50.732;10.174;2022-12-29T10:01:06;3.13;;;1.33;;
19883;SDS011;10104;50.732;10.174;2022-12-29T10:06:11;2.67;;;1.47;;
19883;SDS011;10104;50.732;10.174;2022-12-29T10:13:57;3.43;;;1.50;;
19883;SDS011;10104;50.732;10.174;2022-12-29T10:16:39;2.47;;;1.20;;
19883;SDS011;10104;50.732;10.174;2022-12-29T10:19:28;2.60;;;1.70;;
19883;SDS011;10104;50.732;10.174;2022-12-29T10:24:22;1.90;;;1.33;;
19883;SDS011;10104;50.732;10.174;2022-12-29T10:26:43;2.40;;;1.50;;
19883;SDS011;10104;50.732;10.174;2022-12-29T10:29:18;2.27;;;1.50;;
19883;SDS011;10104;50.732;10.174;2022-12-29T10:31:46;3.80;;;1.60;;
19883;SDS011;10104;50.732;10.174;2022-12-29T10:34:22;2.80;;;1.50;;
19883;SDS011;10104;50.732;10.174;2022-12-29T10:36:58;3.50;;;1.50;;
19883;SDS011;10104;50.732;10.174;2022-12-29T10:39:33;3.20;;;1.50;;
19883;SDS011;10104;50.732;10.174;2022-12-29T10:44:42;2.70;;;1.43;;
19883;SDS011;10104;50.732;10.174;2022-12-29T10:47:05;5.53;;;1.57;;
19883;SDS011;10104;50.732;10.174;2022-12-29T10:49:32;2.33;;;1.50;;
19883;SDS011;10104;50.732;10.174;2022-12-29T10:52:00;4.53;;;1.53;;
19883;SDS011;10104;50.732;10.174;2022-12-29T10:54:38;1.83;;;1.40;;
19883;SDS011;10104;50.732;10.174;2022-12-29T10:57:10;2.43;;;1.40;;
19883;SDS011;10104;50.732;10.174;2022-12-29T10:59:42;2.83;;;1.37;;
19883;SDS011;10104;50.732;10.174;2022-12-29T11:02:15;2.90;;;1.40;;
19883;SDS011;10104;50.732;10.174;2022-12-29T11:04:46;2.40;;;1.50;;
19883;SDS011;10104;50.732;10.174;2022-12-29T11:07:11;2.70;;;1.70;;
19883;SDS011;10104;50.732;10.174;2022-12-29T11:09:38;2.40;;;1.57;;
19883;SDS011;10104;50.732;10.174;2022-12-29T11:14:41;1.90;;;1.63;;
19883;SDS011;10104;50.732;10.174;2022-12-29T11:17:03;1.90;;;1.50;;
19883;SDS011;10104;50.732;10.174;2022-12-29T11:19:26;2.67;;;1.50;;
19883;SDS011;10104;50.732;10.174;2022-12-29T11:21:50;1.73;;;1.27;;
19883;SDS011;10104;50.732;10.174;2022-12-29T11:26:40;1.50;;;1.37;;
19883;SDS011;10104;50.732;10.174;2022-12-29T11:31:29;4.07;;;1.47;;
19883;SDS011;10104;50.732;10.174;2022-12-29T11:33:50;2.23;;;1.30;;
19883;SDS011;10104;50.732;10.174;2022-12-29T11:36:22;2.97;;;1.40;;
19883;SDS011;10104;50.732;10.174;2022-12-29T11:38:46;3.30;;;1.57;;
19883;SDS011;10104;50.732;10.174;2022-12-29T11:41:18;1.33;;;1.23;;
19883;SDS011;10104;50.732;10.174;2022-12-29T11:43:42;2.27;;;1.10;;
19883;SDS011;10104;50.732;10.174;2022-12-29T11:46:05;2.57;;;1.50;;
19883;SDS011;10104;50.732;10.174;2022-12-29T11:48:28;1.37;;;1.10;;
19883;SDS011;10104;50.732;10.174;2022-12-29T11:50:55;3.73;;;1.60;;
19883;SDS011;10104;50.732;10.174;2022-12-29T11:55:53;2.83;;;1.20;;
19883;SDS011;10104;50.732;10.174;2022-12-29T11:58:17;2.47;;;1.10;;
19883;SDS011;10104;50.732;10.174;2022-12-29T12:00:38;1.87;;;1.20;;
19883;SDS011;10104;50.732;10.174;2022-12-29T12:03:01;2.97;;;1.40;;
19883;SDS011;10104;50.732;10.174;2022-12-29T12:05:30;2.30;;;1.27;;
19883;SDS011;10104;50.732;10.174;2022-12-29T12:08:00;1.97;;;1.07;;
19883;SDS011;10104;50.732;10.174;2022-12-29T12:10:31;2.70;;;1.20;;
19883;SDS011;10104;50.732;10.174;2022-12-29T12:13:47;5.80;;;1.23;;
19883;SDS011;10104;50.732;10.174;2022-12-29T12:15:59;3.17;;;1.20;;
19883;SDS011;10104;50.732;10.174;2022-12-29T12:26:30;2.27;;;0.97;;
19883;SDS011;10104;50.732;10.174;2022-12-29T12:29:13;1.67;;;0.90;;
19883;SDS011;10104;50.732;10.174;2022-12-29T12:31:51;2.73;;;1.03;;
19883;SDS011;10104;50.732;10.174;2022-12-29T12:34:38;0.90;;;0.70;;
19883;SDS011;10104;50.732;10.174;2022-12-29T12:42:18;1.37;;;0.60;;
19883;SDS011;10104;50.732;10.174;2022-12-29T12:45:32;1.00;;;0.60;;
19883;SDS011;10104;50.732;10.174;2022-12-29T12:50:30;1.43;;;0.70;;
19883;SDS011;10104;50.732;10.174;2022-12-29T13:01:50;1.97;;;0.90;;
19883;SDS011;10104;50.732;10.174;2022-12-29T13:07:07;1.47;;;0.70;;
19883;SDS011;10104;50.732;10.174;2022-12-29T13:09:45;2.67;;;0.80;;
19883;SDS011;10104;50.732;10.174;2022-12-29T13:17:20;2.17;;;1.00;;
19883;SDS011;10104;50.732;10.174;2022-12-29T13:19:58;1.50;;;0.70;;
19883;SDS011;10104;50.732;10.174;2022-12-29T13:25:18;1.10;;;0.80;;
19883;SDS011;10104;50.732;10.174;2022-12-29T13:27:44;2.93;;;0.90;;
19883;SDS011;10104;50.732;10.174;2022-12-29T13:30:12;2.13;;;0.90;;
19883;SDS011;10104;50.732;10.174;2022-12-29T13:35:45;2.73;;;0.60;;
19883;SDS011;10104;50.732;10.174;2022-12-29T13:38:17;3.30;;;0.90;;
19883;SDS011;10104;50.732;10.174;2022-12-29T13:40:45;2.63;;;0.90;;
19883;SDS011;10104;50.732;10.174;2022-12-29T13:43:09;3.27;;;0.83;;
19883;SDS011;10104;50.732;10.174;2022-12-29T13:45:33;2.10;;;0.90;;
19883;SDS011;10104;50.732;10.174;2022-12-29T13:48:02;2.10;;;1.07;;
19883;SDS011;10104;50.732;10.174;2022-12-29T13:50:31;2.43;;;0.90;;
19883;SDS011;10104;50.732;10.174;2022-12-29T13:53:06;3.33;;;1.20;;
19883;SDS011;10104;50.732;10.174;2022-12-29T13:55:35;3.13;;;0.77;;
19883;SDS011;10104;50.732;10.174;2022-12-29T14:01:18;2.73;;;1.03;;
19883;SDS011;10104;50.732;10.174;2022-12-29T14:08:36;3.13;;;0.93;;
19883;SDS011;10104;50.732;10.174;2022-12-29T14:11:08;2.90;;;0.80;;
19883;SDS011;10104;50.732;10.174;2022-12-29T14:13:32;3.20;;;1.00;;
19883;SDS011;10104;50.732;10.174;2022-12-29T14:16:00;3.60;;;1.00;;
19883;SDS011;10104;50.732;10.174;2022-12-29T14:18:23;4.33;;;1.00;;
19883;SDS011;10104;50.732;10.174;2022-12-29T14:20:56;3.57;;;1.30;;
19883;SDS011;10104;50.732;10.174;2022-12-29T14:25:56;2.67;;;1.00;;
19883;SDS011;10104;50.732;10.174;2022-12-29T14:28:24;2.07;;;0.80;;
19883;SDS011;10104;50.732;10.174;2022-12-29T14:30:48;3.33;;;1.23;;
19883;SDS011;10104;50.732;10.174;2022-12-29T14:33:14;6.10;;;1.10;;
19883;SDS011;10104;50.732;10.174;2022-12-29T14:35:43;2.93;;;0.93;;
19883;SDS011;10104;50.732;10.174;2022-12-29T14:38:17;1.60;;;0.83;;
19883;SDS011;10104;50.732;10.174;2022-12-29T14:40:41;3.17;;;1.20;;
19883;SDS011;10104;50.732;10.174;2022-12-29T14:43:06;2.53;;;1.03;;
19883;SDS011;10104;50.732;10.174;2022-12-29T14:45:35;4.10;;;1.03;;
19883;SDS011;10104;50.732;10.174;2022-12-29T14:47:58;2.47;;;1.00;;
19883;SDS011;10104;50.732;10.174;2022-12-29T14:52:55;3.30;;;1.10;;
19883;SDS011;10104;50.732;10.174;2022-12-29T14:55:43;5.30;;;0.97;;
19883;SDS011;10104;50.732;10.174;2022-12-29T14:58:14;3.67;;;1.30;;
19883;SDS011;10104;50.732;10.174;2022-12-29T15:00:41;2.40;;;1.00;;
19883;SDS011;10104;50.732;10.174;2022-12-29T15:03:05;2.30;;;1.00;;
19883;SDS011;10104;50.732;10.174;2022-12-29T15:05:36;2.77;;;1.00;;
19883;SDS011;10104;50.732;10.174;2022-12-29T15:08:05;5.03;;;1.20;;
19883;SDS011;10104;50.732;10.174;2022-12-29T15:10:32;2.73;;;0.93;;
19883;SDS011;10104;50.732;10.174;2022-12-29T15:13:05;2.90;;;0.90;;
19883;SDS011;10104;50.732;10.174;2022-12-29T15:15:37;3.33;;;1.00;;
19883;SDS011;10104;50.732;10.174;2022-12-29T15:18:11;3.47;;;1.30;;
19883;SDS011;10104;50.732;10.174;2022-12-29T15:20:35;2.70;;;0.83;;
19883;SDS011;10104;50.732;10.174;2022-12-29T15:22:57;3.67;;;1.10;;
19883;SDS011;10104;50.732;10.174;2022-12-29T15:25:23;4.23;;;1.30;;
19883;SDS011;10104;50.732;10.174;2022-12-29T15:27:50;2.97;;;1.00;;
19883;SDS011;10104;50.732;10.174;2022-12-29T15:30:13;2.63;;;1.17;;
19883;SDS011;10104;50.732;10.174;2022-12-29T15:32:39;3.10;;;1.00;;
19883;SDS011;10104;50.732;10.174;2022-12-29T15:35:13;2.33;;;1.00;;
19883;SDS011;10104;50.732;10.174;2022-12-29T15:37:44;3.97;;;1.20;;
19883;SDS011;10104;50.732;10.174;2022-12-29T15:40:19;3.37;;;1.30;;
19883;SDS011;10104;50.732;10.174;2022-12-29T15:42:51;2.37;;;1.03;;
19883;SDS011;10104;50.732;10.174;2022-12-29T15:45:13;2.97;;;1.27;;
19883;SDS011;10104;50.732;10.174;2022-12-29T15:47:35;2.50;;;1.10;;
19883;SDS011;10104;50.732;10.174;2022-12-29T15:50:04;2.57;;;0.97;;
19883;SDS011;10104;50.732;10.174;2022-12-29T15:52:30;2.43;;;1.33;;
19883;SDS011;10104;50.732;10.174;2022-12-29T15:54:54;3.13;;;1.47;;
19883;SDS011;10104;50.732;10.174;2022-12-29T15:57:20;5.33;;;1.43;;
19883;SDS011;10104;50.732;10.174;2022-12-29T15:59:45;5.03;;;1.97;;
19883;SDS011;10104;50.732;10.174;2022-12-29T16:02:08;2.80;;;1.07;;
19883;SDS011;10104;50.732;10.174;2022-12-29T16:04:32;4.30;;;1.40;;
19883;SDS011;10104;50.732;10.174;2022-12-29T16:07:27;4.03;;;1.17;;
19883;SDS011;10104;50.732;10.174;2022-12-29T16:10:00;3.57;;;1.50;;